Everdell, Minnesota
Current Conditions -  °F | °C
As of 9:35 PM on Friday 19 Dec 2014 (Local Time) from KBWP Reporting Station
Overcast Overcast  
Wind Chill: 24°   Ceiling: 1300
Heat Index: 32°   Visibility: 5mi
Dew Point: 28°   Wind: 10mph
Humidity: 87%   Direction: 170°S
Pressure: 30.03"   Gusts: NA
Location:  46.3422°N, 96.4653°W
Report Text: KBWP 200335Z AUTO 17009KT 5SM OVC013 00/M02 A3003 RMK AO1
Loading
Personal Weather Stations






























Interactive Weather Map New forecast layout! Learn more

10-Day Weather Forecast

Advertisements
Track Severe Weather on mobile